createdAt,value
2022-09-06T00:00:26.400Z,6.00
2022-09-06T00:02:54.731Z,3.93
2022-09-06T00:05:23.162Z,5.67
2022-09-06T00:07:51.225Z,6.50
2022-09-06T00:10:19.677Z,7.17
2022-09-06T00:12:47.916Z,8.00
2022-09-06T00:15:17.434Z,4.67
2022-09-06T00:17:45.578Z,5.80
2022-09-06T00:20:13.746Z,3.67
2022-09-06T00:22:41.802Z,4.60
2022-09-06T00:25:10.738Z,3.83
2022-09-06T00:27:38.847Z,5.93
2022-09-06T00:30:07.871Z,11.13
2022-09-06T00:32:37.279Z,4.80
2022-09-06T00:35:06.251Z,2.97
2022-09-06T00:37:34.339Z,3.47
2022-09-06T00:40:02.616Z,4.77
2022-09-06T00:42:30.762Z,9.40
2022-09-06T00:44:59.014Z,9.00
2022-09-06T00:47:28.145Z,5.90
2022-09-06T00:50:00.534Z,6.20
2022-09-06T00:52:29.989Z,5.63
2022-09-06T00:54:58.231Z,6.10
2022-09-06T00:57:27.221Z,5.43
2022-09-06T00:59:56.742Z,3.90
2022-09-06T01:02:24.893Z,5.37
2022-09-06T01:04:53.334Z,7.43
2022-09-06T01:07:34.152Z,4.53
2022-09-06T01:10:20.150Z,3.40
2022-09-06T01:12:55.531Z,4.33
2022-09-06T01:15:32.898Z,5.70
2022-09-06T01:18:12.261Z,5.13
2022-09-06T01:21:02.502Z,5.83
2022-09-06T01:24:19.225Z,3.93
2022-09-06T01:27:19.962Z,4.27
2022-09-06T01:29:52.589Z,3.03
2022-09-06T01:32:26.319Z,5.60
2022-09-06T01:35:02.960Z,6.67
2022-09-06T01:37:31.301Z,4.50
2022-09-06T01:39:59.430Z,4.80
2022-09-06T01:42:29.983Z,4.80
2022-09-06T01:45:03.691Z,5.23
2022-09-06T01:47:40.773Z,8.97
2022-09-06T01:50:36.449Z,3.37
2022-09-06T01:53:14.932Z,5.00
2022-09-06T01:55:49.738Z,6.23
2022-09-06T01:58:34.875Z,6.73
2022-09-06T02:01:09.672Z,5.23
2022-09-06T02:03:44.430Z,3.07
2022-09-06T02:06:18.075Z,3.50
2022-09-06T02:08:50.133Z,7.37
2022-09-06T02:11:18.670Z,3.80
2022-09-06T02:13:53.563Z,5.07
2022-09-06T02:16:26.626Z,5.67
2022-09-06T02:18:59.995Z,4.70
2022-09-06T02:21:32.885Z,4.30
2022-09-06T02:24:04.263Z,3.87
2022-09-06T02:26:38.058Z,7.70
2022-09-06T02:29:06.435Z,5.90
2022-09-06T02:31:40.378Z,7.33
2022-09-06T02:34:10.070Z,7.20
2022-09-06T02:36:38.813Z,4.57
2022-09-06T02:39:07.044Z,6.10
2022-09-06T02:41:35.988Z,3.00
2022-09-06T02:44:04.319Z,4.03
2022-09-06T02:46:32.500Z,4.20
2022-09-06T02:49:01.922Z,5.13
2022-09-06T02:51:29.972Z,3.00
2022-09-06T02:53:58.053Z,3.90
2022-09-06T02:56:26.182Z,4.53
2022-09-06T02:58:54.239Z,3.73
2022-09-06T03:01:22.316Z,5.13
2022-09-06T03:03:50.387Z,3.90
2022-09-06T03:06:19.890Z,3.73
2022-09-06T03:08:47.978Z,2.87
2022-09-06T03:11:16.166Z,4.47
2022-09-06T03:13:44.285Z,6.93
2022-09-06T03:16:12.393Z,5.40
2022-09-06T03:18:40.953Z,9.97
2022-09-06T03:21:09.157Z,3.97
2022-09-06T03:23:39.473Z,2.40
2022-09-06T03:26:08.086Z,4.43
2022-09-06T03:28:36.158Z,4.33
2022-09-06T03:31:04.716Z,5.63
2022-09-06T03:33:32.852Z,3.33
2022-09-06T03:36:02.984Z,11.47
2022-09-06T03:38:32.743Z,5.17
2022-09-06T03:41:02.175Z,3.77
2022-09-06T03:43:33.637Z,7.43
2022-09-06T03:46:02.487Z,6.33
2022-09-06T03:48:31.037Z,3.80
2022-09-06T03:51:00.319Z,3.50
2022-09-06T03:53:29.641Z,6.77
2022-09-06T03:55:58.765Z,4.33
2022-09-06T03:58:31.726Z,6.13
2022-09-06T04:01:05.544Z,7.60
2022-09-06T04:03:34.569Z,6.60
2022-09-06T04:06:03.172Z,4.80
2022-09-06T04:08:31.947Z,3.50
2022-09-06T04:11:00.819Z,7.77
2022-09-06T04:13:31.422Z,4.57
2022-09-06T04:16:00.081Z,4.60
2022-09-06T04:18:28.323Z,11.83
2022-09-06T04:20:57.643Z,5.97
2022-09-06T04:23:27.313Z,4.70
2022-09-06T04:25:57.031Z,10.20
2022-09-06T04:28:26.574Z,6.30
2022-09-06T04:31:00.911Z,9.60
2022-09-06T04:33:33.642Z,6.50
2022-09-06T04:36:02.994Z,8.20
2022-09-06T04:38:35.202Z,12.57
2022-09-06T04:41:03.266Z,8.93
2022-09-06T04:43:31.334Z,4.07
2022-09-06T04:46:06.184Z,6.63
2022-09-06T04:48:34.316Z,6.03
2022-09-06T04:51:02.363Z,4.40
2022-09-06T04:53:30.427Z,6.37
2022-09-06T04:55:59.307Z,4.70
2022-09-06T04:58:27.496Z,4.47
2022-09-06T05:00:55.845Z,5.67
2022-09-06T05:03:25.377Z,5.03
2022-09-06T05:05:53.422Z,11.20
2022-09-06T05:08:21.580Z,7.43
2022-09-06T05:10:52.418Z,6.43
2022-09-06T05:13:20.535Z,20.03
2022-09-06T05:15:48.607Z,11.60
2022-09-06T05:18:16.671Z,11.70
2022-09-06T05:20:51.890Z,6.70
2022-09-06T05:23:19.937Z,14.80
2022-09-06T05:25:48.119Z,9.90
2022-09-06T05:28:16.563Z,9.30
2022-09-06T05:30:44.871Z,9.60
2022-09-06T05:33:14.262Z,20.93
2022-09-06T05:35:42.349Z,8.20
2022-09-06T05:38:11.814Z,15.97
2022-09-06T05:40:39.852Z,12.70
2022-09-06T05:43:07.910Z,9.70
2022-09-06T05:45:36.058Z,11.77
2022-09-06T05:48:04.501Z,15.17
2022-09-06T05:50:32.541Z,9.00
2022-09-06T05:53:00.643Z,17.20
2022-09-06T05:55:30.042Z,15.83
2022-09-06T05:57:58.087Z,13.27
2022-09-06T06:00:26.167Z,18.60
2022-09-06T06:02:54.216Z,12.40
2022-09-06T06:05:22.319Z,17.20
2022-09-06T06:07:50.347Z,28.93
2022-09-06T06:10:18.545Z,14.40
2022-09-06T06:12:47.997Z,18.23
2022-09-06T06:15:16.150Z,16.30
2022-09-06T06:17:44.228Z,18.93
2022-09-06T06:20:12.298Z,15.47
2022-09-06T06:22:40.371Z,16.93
2022-09-06T06:25:08.903Z,17.03
2022-09-06T06:27:37.774Z,17.10
2022-09-06T06:30:08.538Z,19.87
2022-09-06T06:32:36.628Z,16.63
2022-09-06T06:35:05.078Z,17.50
2022-09-06T06:37:34.208Z,21.60
2022-09-06T06:40:02.391Z,17.07
2022-09-06T06:42:30.467Z,21.00
2022-09-06T06:44:58.971Z,18.10
2022-09-06T06:47:28.426Z,19.57
2022-09-06T06:49:56.510Z,15.83
2022-09-06T06:52:24.571Z,21.57
2022-09-06T06:54:52.634Z,22.80
2022-09-06T06:57:20.704Z,19.43
2022-09-06T06:59:48.742Z,16.60
2022-09-06T07:02:17.345Z,20.23
2022-09-06T07:04:46.871Z,24.60
2022-09-06T07:07:30.976Z,23.37
2022-09-06T07:12:47.373Z,20.73
2022-09-06T07:15:15.493Z,18.90
2022-09-06T07:17:44.046Z,19.77
2022-09-06T07:20:14.202Z,26.60
2022-09-06T07:22:43.292Z,19.43
2022-09-06T07:25:14.505Z,17.40
2022-09-06T07:30:20.621Z,25.70
2022-09-06T07:32:48.842Z,19.60
2022-09-06T07:35:20.294Z,20.33
2022-09-06T07:37:58.900Z,25.30
2022-09-06T07:40:28.296Z,18.13
2022-09-06T07:42:57.917Z,23.83
2022-09-06T07:45:26.276Z,23.30
2022-09-06T07:47:59.637Z,28.50
2022-09-06T07:50:47.714Z,22.33
2022-09-06T07:53:24.677Z,17.43
2022-09-06T07:55:58.861Z,23.07
2022-09-06T07:58:26.934Z,33.70
2022-09-06T08:00:55.034Z,28.13
2022-09-06T08:03:23.201Z,26.53
2022-09-06T08:11:26.366Z,24.00
2022-09-06T08:13:56.062Z,23.40
2022-09-06T08:16:25.946Z,22.50
2022-09-06T08:18:55.389Z,25.40
2022-09-06T08:21:26.502Z,30.30
2022-09-06T08:23:56.179Z,21.70
2022-09-06T08:26:26.025Z,22.40
2022-09-06T08:28:55.931Z,24.27
2022-09-06T08:31:24.093Z,21.43
2022-09-06T08:33:52.863Z,20.90
2022-09-06T08:36:21.307Z,20.00
2022-09-06T08:38:50.710Z,24.40
2022-09-06T08:41:25.956Z,19.20
2022-09-06T08:46:53.684Z,24.07
2022-09-06T08:49:22.398Z,19.00
2022-09-06T08:52:18.362Z,17.23
2022-09-06T08:54:54.818Z,18.90
2022-09-06T08:57:40.166Z,23.63
2022-09-06T09:00:11.713Z,18.17
2022-09-06T09:02:45.765Z,14.57
2022-09-06T09:05:23.046Z,15.97
2022-09-06T09:08:00.262Z,16.57
2022-09-06T09:10:32.516Z,19.13
2022-09-06T09:13:03.569Z,20.73
2022-09-06T09:15:40.347Z,16.70
2022-09-06T09:18:09.188Z,13.80
2022-09-06T09:20:38.947Z,24.73
2022-09-06T09:23:07.003Z,12.67
2022-09-06T09:25:40.167Z,17.23
2022-09-06T09:28:15.441Z,13.37
2022-09-06T09:30:49.987Z,16.90
2022-09-06T09:33:30.255Z,16.03
2022-09-06T09:36:00.667Z,11.20
2022-09-06T09:38:31.228Z,11.50
2022-09-06T09:41:03.683Z,12.57
2022-09-06T09:43:34.355Z,16.10
2022-09-06T09:46:30.881Z,10.90
2022-09-06T09:49:05.023Z,11.20
2022-09-06T09:51:34.860Z,8.77
2022-09-06T09:54:04.934Z,11.40
2022-09-06T09:56:44.572Z,11.93
2022-09-06T09:59:25.085Z,9.50
2022-09-06T10:01:56.687Z,9.57
2022-09-06T10:04:46.106Z,7.87
2022-09-06T10:07:17.771Z,8.30
2022-09-06T10:09:48.715Z,7.60
2022-09-06T10:12:20.012Z,9.43
2022-09-06T10:14:50.175Z,7.70
2022-09-06T10:17:28.807Z,11.50
2022-09-06T10:19:57.127Z,7.00
2022-09-06T10:22:29.684Z,7.73
2022-09-06T10:25:26.134Z,6.60
2022-09-06T10:28:11.840Z,6.57
2022-09-06T10:30:49.029Z,4.67
2022-09-06T10:33:27.405Z,6.97
2022-09-06T10:35:58.519Z,8.07
2022-09-06T10:38:42.241Z,2.33
2022-09-06T10:41:26.505Z,3.60
2022-09-06T10:44:10.526Z,6.90
2022-09-06T10:46:41.701Z,7.00
2022-09-06T10:49:15.330Z,4.20
2022-09-06T10:51:49.515Z,10.10
2022-09-06T10:54:22.759Z,6.70
2022-09-06T10:56:54.743Z,2.10
2022-09-06T10:59:35.981Z,5.13
2022-09-06T11:02:17.116Z,3.80
2022-09-06T11:07:42.708Z,3.53
2022-09-06T11:10:19.510Z,6.10
2022-09-06T11:12:53.666Z,4.93
2022-09-06T11:15:25.724Z,5.83
2022-09-06T11:17:59.739Z,11.87
2022-09-06T11:20:34.676Z,3.40
2022-09-06T11:23:25.876Z,5.13
2022-09-06T11:26:19.214Z,5.60
2022-09-06T11:28:50.089Z,5.53
2022-09-06T11:34:21.548Z,3.33
2022-09-06T11:36:51.463Z,11.37
2022-09-06T11:43:03.057Z,4.33
2022-09-06T11:45:42.992Z,6.90
2022-09-06T11:48:35.427Z,4.23
2022-09-06T11:51:10.562Z,5.53
2022-09-06T11:54:06.317Z,7.73
2022-09-06T11:56:40.634Z,3.50
2022-09-06T11:59:25.538Z,6.27
2022-09-06T12:02:04.000Z,3.60
2022-09-06T12:05:09.611Z,2.97
2022-09-06T12:07:59.352Z,8.03
2022-09-06T12:10:47.857Z,5.63
2022-09-06T12:13:34.693Z,4.70
2022-09-06T12:16:03.215Z,7.50
2022-09-06T12:19:02.220Z,11.33
2022-09-06T12:21:52.302Z,5.33
2022-09-06T12:24:54.215Z,5.00
2022-09-06T12:27:24.022Z,2.17
2022-09-06T12:29:56.111Z,3.00
2022-09-06T12:32:28.655Z,6.43
2022-09-06T12:37:54.821Z,5.10
2022-09-06T12:40:26.268Z,3.87
2022-09-06T12:42:55.018Z,3.10
2022-09-06T12:45:27.438Z,5.47
2022-09-06T12:48:08.392Z,2.43
2022-09-06T12:50:37.334Z,4.90
2022-09-06T12:53:23.371Z,6.10
2022-09-06T12:56:04.660Z,6.43
2022-09-06T12:58:32.685Z,3.10
2022-09-06T13:01:09.100Z,6.20
2022-09-06T13:03:41.213Z,5.23
2022-09-06T13:06:11.503Z,7.77
2022-09-06T13:08:45.453Z,4.33
2022-09-06T13:11:17.639Z,5.57
2022-09-06T13:13:51.017Z,8.03
2022-09-06T13:16:24.680Z,4.03
2022-09-06T13:18:53.029Z,5.30
2022-09-06T13:21:32.752Z,5.03
2022-09-06T13:24:03.901Z,5.10
2022-09-06T13:26:38.723Z,6.03
2022-09-06T13:29:23.369Z,5.33
2022-09-06T13:31:53.297Z,5.03
2022-09-06T13:34:23.286Z,10.60
2022-09-06T13:36:52.722Z,4.10
2022-09-06T13:39:32.422Z,5.57
2022-09-06T13:42:07.466Z,3.53
2022-09-06T13:44:37.225Z,5.57
2022-09-06T13:47:05.803Z,3.73
2022-09-06T13:49:34.747Z,5.00
2022-09-06T13:52:04.478Z,2.87
2022-09-06T13:54:33.517Z,4.57
2022-09-06T13:57:01.878Z,4.43
2022-09-06T13:59:32.179Z,4.47
2022-09-06T14:02:05.250Z,2.87
2022-09-06T14:04:33.392Z,3.87
2022-09-06T14:07:01.550Z,4.40
2022-09-06T14:09:29.809Z,3.03
2022-09-06T14:12:35.266Z,7.63
2022-09-06T14:15:05.809Z,9.63
2022-09-06T14:17:33.949Z,8.00
2022-09-06T14:20:02.071Z,5.70
2022-09-06T14:22:30.192Z,5.30
2022-09-06T14:24:58.317Z,4.20
2022-09-06T14:27:26.517Z,5.00
2022-09-06T14:29:54.498Z,5.50
2022-09-06T14:32:24.683Z,9.20
2022-09-06T14:34:52.658Z,3.03
2022-09-06T14:37:21.595Z,5.57
2022-09-06T14:40:27.282Z,5.30
2022-09-06T14:42:55.423Z,3.60
2022-09-06T14:45:23.554Z,6.50
2022-09-06T14:47:53.047Z,5.40
2022-09-06T14:50:21.646Z,3.00
2022-09-06T14:52:49.868Z,5.07
2022-09-06T14:55:18.297Z,4.20
2022-09-06T14:57:46.757Z,5.50
2022-09-06T15:00:15.619Z,6.17
2022-09-06T15:02:44.022Z,3.80
2022-09-06T15:05:13.563Z,7.77
2022-09-06T15:07:41.676Z,7.63
2022-09-06T15:10:10.796Z,7.03
2022-09-06T15:12:39.088Z,4.40
2022-09-06T15:15:07.834Z,3.80
2022-09-06T15:17:36.586Z,6.10
2022-09-06T15:20:05.835Z,4.10
2022-09-06T15:22:35.323Z,3.77
2022-09-06T15:25:03.446Z,5.30
2022-09-06T15:27:32.449Z,1.53
2022-09-06T15:30:00.546Z,8.13
2022-09-06T15:32:29.264Z,6.03
2022-09-06T15:35:00.312Z,2.23
2022-09-06T15:37:31.999Z,4.50
2022-09-06T15:40:01.520Z,3.50
2022-09-06T15:42:30.855Z,4.73
2022-09-06T15:44:58.951Z,3.33
2022-09-06T15:47:27.069Z,4.53
2022-09-06T15:49:55.234Z,2.90
2022-09-06T15:52:23.390Z,9.57
2022-09-06T15:55:08.829Z,3.67
2022-09-06T15:57:38.327Z,4.07
2022-09-06T16:00:07.310Z,10.67
2022-09-06T16:02:35.486Z,8.47
2022-09-06T16:05:03.613Z,8.80
2022-09-06T16:07:31.736Z,3.23
2022-09-06T16:10:00.943Z,5.00
2022-09-06T16:12:29.114Z,3.17
2022-09-06T16:14:58.612Z,3.83
2022-09-06T16:17:27.408Z,6.03
2022-09-06T16:19:55.758Z,6.20
2022-09-06T16:22:23.947Z,4.30
2022-09-06T16:24:52.120Z,3.77
2022-09-06T16:27:20.222Z,2.93
2022-09-06T16:29:48.588Z,3.10
2022-09-06T16:32:18.051Z,6.80
2022-09-06T16:34:46.694Z,2.90
2022-09-06T16:37:14.935Z,5.70
2022-09-06T16:39:43.090Z,3.40
2022-09-06T16:42:12.474Z,4.30
2022-09-06T16:44:40.586Z,3.27
2022-09-06T16:47:08.713Z,6.97
2022-09-06T16:49:38.247Z,4.07
2022-09-06T16:52:06.432Z,3.80
2022-09-06T16:54:34.577Z,3.30
2022-09-06T16:57:02.902Z,4.57
2022-09-06T16:59:30.999Z,6.53
2022-09-06T17:01:59.345Z,3.80
2022-09-06T17:04:27.596Z,5.57
2022-09-06T17:06:57.102Z,3.40
2022-09-06T17:09:25.268Z,4.90
2022-09-06T17:11:53.355Z,4.80
2022-09-06T17:14:21.465Z,5.20
2022-09-06T17:17:07.103Z,10.80
2022-09-06T17:19:37.505Z,5.60
2022-09-06T17:22:07.278Z,3.93
2022-09-06T17:24:35.638Z,6.30
2022-09-06T17:27:03.869Z,3.47
2022-09-06T17:29:32.575Z,3.57
2022-09-06T17:32:03.766Z,3.73
2022-09-06T17:34:31.957Z,4.90
2022-09-06T17:37:00.429Z,3.70
2022-09-06T17:39:30.048Z,2.40
2022-09-06T17:41:58.698Z,5.00
2022-09-06T17:44:27.670Z,3.27
2022-09-06T17:47:12.063Z,4.40
2022-09-06T17:49:40.953Z,4.30
2022-09-06T17:52:09.526Z,4.70
2022-09-06T17:54:39.081Z,3.97
2022-09-06T17:57:07.237Z,4.67
2022-09-06T17:59:36.091Z,3.80
2022-09-06T18:02:05.305Z,3.60
2022-09-06T18:04:33.767Z,3.60
2022-09-06T18:07:01.982Z,8.33
2022-09-06T18:09:30.526Z,6.37
2022-09-06T18:12:00.228Z,6.93
2022-09-06T18:14:29.021Z,1.97
2022-09-06T18:16:57.424Z,4.70
2022-09-06T18:19:26.077Z,6.13
2022-09-06T18:21:54.999Z,3.53
2022-09-06T18:24:23.859Z,8.53
2022-09-06T18:26:51.972Z,7.33
2022-09-06T18:29:21.702Z,6.43
2022-09-06T18:31:53.299Z,5.73
2022-09-06T18:34:21.898Z,6.00
2022-09-06T18:36:50.085Z,4.50
2022-09-06T18:39:18.995Z,6.80
2022-09-06T18:42:03.793Z,3.30
2022-09-06T18:44:35.034Z,4.53
2022-09-06T18:47:05.989Z,8.57
2022-09-06T18:49:35.205Z,5.60
2022-09-06T18:52:05.089Z,4.93
2022-09-06T18:54:33.750Z,15.07
2022-09-06T18:57:01.950Z,8.30
2022-09-06T18:59:30.278Z,6.60
2022-09-06T19:02:00.066Z,3.20
2022-09-06T19:04:28.761Z,4.00
2022-09-06T19:06:56.955Z,7.50
2022-09-06T19:09:25.366Z,19.70
2022-09-06T19:11:53.986Z,3.07
2022-09-06T19:14:23.147Z,7.70
2022-09-06T19:16:54.049Z,7.83
2022-09-06T19:19:23.655Z,5.03
2022-09-06T19:21:52.013Z,6.40
2022-09-06T19:24:22.548Z,5.63
2022-09-06T19:26:51.391Z,6.00
2022-09-06T19:29:20.519Z,6.83
2022-09-06T19:31:49.394Z,5.03
2022-09-06T19:34:17.673Z,5.77
2022-09-06T19:36:47.301Z,7.37
2022-09-06T19:39:17.409Z,5.37
2022-09-06T19:41:47.502Z,7.60
2022-09-06T19:44:17.039Z,4.83
2022-09-06T19:46:47.326Z,7.00
2022-09-06T19:49:17.053Z,8.83
2022-09-06T19:51:46.324Z,4.43
2022-09-06T19:54:16.329Z,5.80
2022-09-06T19:56:45.086Z,7.43
2022-09-06T19:59:14.362Z,4.87
2022-09-06T20:01:44.068Z,5.37
2022-09-06T20:04:13.762Z,2.97
2022-09-06T20:06:42.243Z,4.50
2022-09-06T20:09:11.477Z,7.47
2022-09-06T20:11:42.878Z,12.80
2022-09-06T20:14:11.876Z,6.53
2022-09-06T20:16:42.249Z,4.20
2022-09-06T20:19:12.058Z,3.73
2022-09-06T20:21:40.326Z,3.47
2022-09-06T20:24:08.677Z,2.20
2022-09-06T20:26:37.644Z,3.40
2022-09-06T20:29:07.210Z,5.70
2022-09-06T20:31:37.447Z,4.73
2022-09-06T20:34:06.988Z,3.17
2022-09-06T20:36:35.409Z,4.77
2022-09-06T20:39:04.117Z,6.70
2022-09-06T20:41:33.683Z,4.87
2022-09-06T20:44:01.978Z,4.40
2022-09-06T20:46:33.051Z,7.40
2022-09-06T20:49:04.361Z,3.60
2022-09-06T20:51:34.283Z,4.57
2022-09-06T20:54:04.255Z,6.40
2022-09-06T20:56:34.291Z,4.97
2022-09-06T20:59:04.515Z,7.60
2022-09-06T21:01:36.091Z,3.27
2022-09-06T21:04:06.436Z,3.13
2022-09-06T21:06:36.071Z,5.50
2022-09-06T21:09:05.055Z,3.50
2022-09-06T21:11:33.354Z,4.77
2022-09-06T21:14:01.583Z,5.93
2022-09-06T21:16:30.731Z,4.50
2022-09-06T21:19:01.666Z,4.50
2022-09-06T21:21:31.488Z,2.80
2022-09-06T21:24:02.412Z,5.10
2022-09-06T21:26:30.750Z,2.83
2022-09-06T21:28:59.248Z,5.00
2022-09-06T21:31:29.105Z,5.00
2022-09-06T21:34:02.002Z,7.30
2022-09-06T21:36:31.861Z,8.20
2022-09-06T21:39:01.669Z,5.17
2022-09-06T21:41:31.001Z,3.27
2022-09-06T21:44:00.567Z,2.73
2022-09-06T21:46:33.140Z,4.90
2022-09-06T21:49:04.878Z,3.60
2022-09-06T21:51:33.451Z,6.20
2022-09-06T21:54:04.798Z,3.67
2022-09-06T21:56:34.217Z,4.03
2022-09-06T21:59:03.033Z,4.10
2022-09-06T22:01:32.901Z,2.90
2022-09-06T22:04:02.233Z,3.63
2022-09-06T22:06:34.037Z,3.87
2022-09-06T22:09:05.845Z,9.70
2022-09-06T22:11:35.177Z,3.40
2022-09-06T22:14:05.416Z,3.30
2022-09-06T22:16:35.494Z,7.23
2022-09-06T22:19:04.631Z,5.30
2022-09-06T22:21:35.121Z,20.87
2022-09-06T22:24:05.707Z,7.70
2022-09-06T22:26:36.528Z,12.77
2022-09-06T22:29:07.595Z,15.27
2022-09-06T22:31:36.575Z,4.23
2022-09-06T22:34:05.452Z,5.70
2022-09-06T22:36:35.169Z,3.97
2022-09-06T22:39:03.442Z,4.80
2022-09-06T22:41:33.077Z,7.80
2022-09-06T22:44:02.184Z,5.10
2022-09-06T22:46:30.854Z,4.03
2022-09-06T22:48:59.231Z,2.80
2022-09-06T22:51:27.358Z,4.63
2022-09-06T22:53:56.908Z,4.33
2022-09-06T22:56:25.412Z,6.80
2022-09-06T22:58:53.651Z,4.10
2022-09-06T23:01:21.883Z,4.17
2022-09-06T23:03:50.567Z,7.00
2022-09-06T23:06:19.121Z,2.07
2022-09-06T23:08:47.331Z,5.33
2022-09-06T23:11:18.963Z,5.33
2022-09-06T23:13:47.438Z,10.73
2022-09-06T23:16:17.785Z,8.80
2022-09-06T23:18:46.706Z,11.97
2022-09-06T23:21:16.920Z,14.37
2022-09-06T23:23:46.084Z,4.43
2022-09-06T23:26:17.738Z,5.67
2022-09-06T23:28:46.516Z,6.60
2022-09-06T23:31:16.181Z,7.00
2022-09-06T23:33:44.838Z,4.33
2022-09-06T23:36:14.817Z,7.73
2022-09-06T23:38:43.572Z,10.20
2022-09-06T23:41:13.235Z,5.03
2022-09-06T23:43:44.350Z,5.20
2022-09-06T23:46:14.503Z,8.17
2022-09-06T23:48:43.239Z,11.33
2022-09-06T23:51:11.727Z,6.60
2022-09-06T23:53:40.553Z,6.03
2022-09-06T23:56:09.049Z,6.70
2022-09-06T23:58:37.653Z,7.87
